Time;durP1;ratioP1;P1;durP2;ratioP2;P2;SDS_P1;SDS_P2;PMS_P1;PMS_P2;Temp;Humidity;BMP_temperature;BMP_pressure;BME280_temperature;BME280_humidity;BME280_pressure;Samples;Min_cycle;Max_cycle;Signal;HPM_P1;HPM_P2
2022/10/30 00:00:44;;;;;;;45.65;8.50;;;15.00;99.90;;;;;;5035671;28;20068;-75
2022/10/30 00:03:12;;;;;;;35.13;7.35;;;14.90;99.90;;;;;;5016513;28;20056;-75
2022/10/30 00:05:44;;;;;;;36.17;7.55;;;14.90;99.90;;;;;;5035330;28;20056;-75
2022/10/30 00:08:13;;;;;;;34.08;7.10;;;14.90;99.90;;;;;;5034864;28;20056;-75
2022/10/30 00:10:41;;;;;;;36.30;8.00;;;14.80;99.90;;;;;;5034812;28;20064;-76
2022/10/30 00:13:09;;;;;;;40.03;7.93;;;14.80;99.90;;;;;;5017545;28;20053;-75
2022/10/30 00:15:37;;;;;;;38.45;7.20;;;14.80;99.90;;;;;;5016986;28;20061;-74
2022/10/30 00:18:05;;;;;;;45.15;8.23;;;14.80;99.90;;;;;;5035482;28;20054;-74
2022/10/30 00:20:35;;;;;;;33.70;7.60;;;14.80;99.90;;;;;;5034803;28;20042;-75
2022/10/30 00:23:02;;;;;;;44.80;8.00;;;14.70;99.90;;;;;;5016478;28;20042;-76
2022/10/30 00:25:30;;;;;;;40.60;7.80;;;14.80;99.90;;;;;;5034814;28;20045;-75
2022/10/30 00:27:57;;;;;;;41.25;7.82;;;14.90;99.90;;;;;;5035065;28;20049;-75
2022/10/30 00:30:25;;;;;;;41.00;7.83;;;14.90;99.90;;;;;;5016297;28;20038;-75
2022/10/30 00:32:52;;;;;;;38.23;7.90;;;15.00;99.90;;;;;;5034793;28;20297;-75
2022/10/30 00:35:20;;;;;;;38.65;7.40;;;15.00;99.90;;;;;;5033676;28;20283;-75
2022/10/30 00:37:47;;;;;;;39.33;7.50;;;15.00;99.90;;;;;;5034699;28;20044;-76
2022/10/30 00:40:17;;;;;;;38.30;6.72;;;15.00;99.90;;;;;;5017206;28;20061;-75
2022/10/30 00:42:45;;;;;;;;;;;15.10;99.90;;;;;;5033776;28;20408;-75
2022/10/30 00:45:14;;;;;;;33.08;6.60;;;15.10;99.90;;;;;;5034673;28;20344;-74
2022/10/30 00:47:54;;;;;;;42.55;6.50;;;15.10;99.90;;;;;;5017247;28;20464;-75
2022/10/30 00:50:32;;;;;;;30.08;5.85;;;15.10;99.90;;;;;;5016213;28;20064;-75
2022/10/30 00:53:10;;;;;;;31.20;5.55;;;15.10;99.90;;;;;;5017549;28;20052;-76
2022/10/30 00:55:42;;;;;;;35.95;6.35;;;15.10;99.90;;;;;;5016353;28;20372;-75
2022/10/30 00:58:14;;;;;;;37.17;5.82;;;15.00;99.90;;;;;;5021320;28;20053;-74
2022/10/30 01:00:49;;;;;;;43.17;6.80;;;15.00;99.90;;;;;;5021178;28;20045;-75
2022/10/30 01:03:19;;;;;;;38.45;6.07;;;15.00;99.90;;;;;;5020109;28;20041;-74
2022/10/30 01:05:54;;;;;;;35.25;6.63;;;15.00;99.90;;;;;;5038175;28;20052;-75
2022/10/30 01:08:22;;;;;;;28.42;5.72;;;15.00;99.90;;;;;;5037001;28;20037;-76
2022/10/30 01:10:49;;;;;;;35.17;5.43;;;15.00;99.90;;;;;;5004920;28;20400;-77
2022/10/30 01:13:19;;;;;;;;;;;14.90;99.90;;;;;;5038317;28;20353;-75
2022/10/30 01:16:22;;;;;;;34.53;5.85;;;14.90;99.90;;;;;;5019813;28;19928;-75
2022/10/30 01:19:07;;;;;;;32.70;5.13;;;14.80;99.90;;;;;;4988578;28;20049;-75
2022/10/30 01:21:47;;;;;;;31.67;5.05;;;14.80;99.90;;;;;;5037217;28;20045;-76
2022/10/30 01:24:30;;;;;;;34.53;5.22;;;14.80;99.90;;;;;;5021004;28;20053;-76
2022/10/30 01:27:25;;;;;;;32.78;4.78;;;14.70;99.90;;;;;;5020875;28;20045;-74
2022/10/30 01:30:14;;;;;;;33.03;5.28;;;14.70;99.90;;;;;;5019388;28;20056;-75
2022/10/30 01:32:50;;;;;;;34.67;5.07;;;14.70;99.90;;;;;;5020290;28;20041;-75
2022/10/30 01:35:46;;;;;;;34.03;5.20;;;14.70;99.90;;;;;;5019568;28;20068;-76
2022/10/30 01:38:25;;;;;;;33.53;5.15;;;14.60;99.90;;;;;;5003937;28;20061;-75
2022/10/30 01:40:53;;;;;;;33.55;5.05;;;14.70;99.90;;;;;;5004422;28;20045;-74
2022/10/30 01:43:21;;;;;;;29.25;4.85;;;14.70;99.90;;;;;;5019113;28;20045;-75
2022/10/30 01:45:54;;;;;;;34.85;5.38;;;14.70;99.90;;;;;;5020306;28;20041;-75
2022/10/30 01:48:40;;;;;;;26.75;4.68;;;14.70;99.90;;;;;;5036675;28;20056;-75
2022/10/30 01:51:39;;;;;;;33.03;4.68;;;14.70;99.90;;;;;;5020225;28;20054;-76
2022/10/30 01:54:51;;;;;;;31.73;4.60;;;14.70;99.90;;;;;;5020031;28;20037;-75
2022/10/30 01:57:36;;;;;;;29.65;4.07;;;14.70;99.90;;;;;;5019202;28;20341;-74
2022/10/30 02:00:12;;;;;;;29.52;4.15;;;14.70;99.90;;;;;;5019899;28;20038;-75
2022/10/30 02:02:41;;;;;;;22.90;4.05;;;14.70;99.90;;;;;;5036443;28;20092;-75
2022/10/30 02:05:18;;;;;;;23.63;4.20;;;14.70;99.90;;;;;;5003528;28;20068;-74
2022/10/30 02:07:47;;;;;;;28.35;4.40;;;14.60;99.90;;;;;;5018470;28;20064;-75
2022/10/30 02:10:15;;;;;;;29.33;4.15;;;14.60;99.90;;;;;;5035974;28;20053;-74
2022/10/30 02:12:42;;;;;;;26.30;4.03;;;14.60;99.90;;;;;;5019660;28;20349;-74
2022/10/30 02:15:11;;;;;;;21.08;3.70;;;14.60;99.90;;;;;;5018890;28;20045;-75
2022/10/30 02:17:39;;;;;;;25.10;3.70;;;14.50;99.90;;;;;;5019745;28;20038;-76
2022/10/30 02:20:13;;;;;;;27.08;3.80;;;14.60;99.90;;;;;;5019447;28;20041;-75
2022/10/30 02:22:41;;;;;;;37.85;4.75;;;14.50;99.90;;;;;;5018847;28;20463;-75
2022/10/30 02:25:09;;;;;;;25.00;3.95;;;14.60;99.90;;;;;;5036753;28;20363;-75
2022/10/30 02:27:37;;;;;;;22.98;3.28;;;14.60;99.90;;;;;;5019502;28;20475;-75
2022/10/30 02:30:05;;;;;;;26.77;3.88;;;14.50;99.90;;;;;;5035760;28;20041;-75
2022/10/30 02:32:33;;;;;;;29.77;4.50;;;14.50;99.90;;;;;;5019319;28;20048;-74
2022/10/30 02:35:01;;;;;;;29.13;4.53;;;14.50;99.90;;;;;;5018798;28;20464;-74
2022/10/30 02:37:31;;;;;;;28.60;4.18;;;14.50;99.90;;;;;;5019549;28;20460;-75
2022/10/30 02:39:58;;;;;;;36.60;4.57;;;14.50;99.90;;;;;;5019063;28;20042;-74
2022/10/30 02:42:26;;;;;;;21.52;3.70;;;14.40;99.90;;;;;;5035384;28;20061;-75
2022/10/30 02:44:53;;;;;;;28.70;3.72;;;14.40;99.90;;;;;;5019038;28;20049;-75
2022/10/30 02:47:21;;;;;;;30.23;3.85;;;14.30;99.90;;;;;;5019518;28;20056;-73
2022/10/30 02:49:49;;;;;;;;;;;14.30;99.90;;;;;;5018280;28;20045;-76
2022/10/30 02:52:16;;;;;;;32.28;4.47;;;14.20;99.90;;;;;;5002944;28;20375;-75
2022/10/30 02:54:44;;;;;;;24.95;3.97;;;14.20;99.90;;;;;;5019115;28;20042;-75
2022/10/30 02:57:11;;;;;;;36.15;4.05;;;14.10;99.90;;;;;;5035219;28;20046;-74
2022/10/30 02:59:39;;;;;;;39.63;4.85;;;14.10;99.90;;;;;;5018653;28;20041;-74
2022/10/30 03:02:06;;;;;;;32.33;4.45;;;14.10;99.90;;;;;;5017689;28;20452;-76
2022/10/30 03:04:34;;;;;;;35.38;4.40;;;14.10;99.90;;;;;;5002770;28;20056;-76
2022/10/30 03:07:01;;;;;;;27.10;3.80;;;14.00;99.90;;;;;;5035724;28;20068;-74
2022/10/30 03:09:29;;;;;;;26.88;3.42;;;14.00;99.90;;;;;;5017451;28;20061;-74
2022/10/30 03:11:56;;;;;;;32.87;4.47;;;13.90;99.90;;;;;;5035718;28;20056;-74
2022/10/30 03:14:24;;;;;;;28.17;4.47;;;13.90;99.90;;;;;;5035742;28;20297;-74
2022/10/30 03:16:52;;;;;;;38.90;4.60;;;13.80;99.90;;;;;;5017484;28;20045;-74
2022/10/30 03:19:19;;;;;;;27.92;4.22;;;13.80;99.90;;;;;;5035640;28;20049;-74
2022/10/30 03:21:47;;;;;;;33.47;3.90;;;13.80;99.90;;;;;;5017524;28;20489;-75
2022/10/30 03:24:15;;;;;;;36.13;4.90;;;13.70;99.90;;;;;;5035889;28;20053;-76
2022/10/30 03:26:45;;;;;;;31.52;4.60;;;13.70;99.90;;;;;;5018216;28;20045;-75
2022/10/30 03:29:13;;;;;;;27.85;4.30;;;13.70;99.90;;;;;;5017163;28;20045;-76
2022/10/30 03:31:40;;;;;;;36.45;4.55;;;13.80;99.90;;;;;;5018152;28;20049;-76
2022/10/30 03:34:14;;;;;;;42.10;4.47;;;13.70;99.90;;;;;;5018161;28;20491;-74
2022/10/30 03:36:42;;;;;;;33.90;4.38;;;13.70;99.90;;;;;;5034426;28;20041;-75
2022/10/30 03:39:11;;;;;;;37.08;5.05;;;13.70;99.90;;;;;;5018212;28;20052;-75
2022/10/30 03:41:42;;;;;;;35.83;4.72;;;13.60;99.90;;;;;;5017405;28;20049;-75
2022/10/30 03:44:10;;;;;;;32.75;4.47;;;13.70;99.90;;;;;;5017899;28;20041;-74
2022/10/30 03:46:38;;;;;;;40.38;4.55;;;13.70;99.90;;;;;;5018458;28;20045;-75
2022/10/30 03:49:16;;;;;;;44.53;4.55;;;13.70;99.90;;;;;;5016841;28;20053;-76
2022/10/30 03:51:44;;;;;;;43.97;4.63;;;13.70;99.90;;;;;;5017778;28;20060;-76
2022/10/30 03:54:12;;;;;;;32.22;3.95;;;13.70;99.90;;;;;;5017731;28;20042;-75
2022/10/30 03:56:39;;;;;;;33.90;4.10;;;13.80;99.90;;;;;;5016807;28;20052;-76
2022/10/30 03:59:09;;;;;;;33.20;4.15;;;13.70;99.90;;;;;;5017777;28;20045;-75
2022/10/30 04:01:39;;;;;;;37.00;3.97;;;13.60;99.90;;;;;;5016851;28;20041;-74
2022/10/30 04:04:07;;;;;;;32.63;4.22;;;13.60;99.90;;;;;;5017663;28;20064;-74
2022/10/30 04:06:34;;;;;;;27.27;3.50;;;13.60;99.90;;;;;;5024417;28;20494;-74
2022/10/30 04:09:02;;;;;;;31.55;3.67;;;13.60;99.90;;;;;;5052818;28;20052;-75
2022/10/30 04:11:35;;;;;;;30.80;3.78;;;13.50;99.90;;;;;;5054038;28;20045;-75
2022/10/30 04:14:03;;;;;;;39.57;4.23;;;13.50;99.90;;;;;;5053841;28;20048;-75
2022/10/30 04:16:31;;;;;;;41.50;4.15;;;13.50;99.90;;;;;;5052863;28;20285;-75
2022/10/30 04:19:00;;;;;;;32.97;4.10;;;13.50;99.90;;;;;;5053766;28;20456;-76
2022/10/30 04:21:28;;;;;;;25.15;3.53;;;13.50;99.90;;;;;;5054668;28;20039;-74
2022/10/30 04:23:57;;;;;;;29.38;4.15;;;13.50;99.90;;;;;;5052637;28;20055;-75
2022/10/30 04:26:28;;;;;;;29.23;4.10;;;13.50;99.90;;;;;;5053883;28;20472;-74
2022/10/30 04:28:56;;;;;;;40.10;5.03;;;13.50;99.90;;;;;;5052691;28;20045;-75
2022/10/30 04:31:24;;;;;;;40.22;4.93;;;13.50;99.90;;;;;;5053937;28;20045;-74
2022/10/30 04:33:52;;;;;;;32.78;4.75;;;13.50;99.90;;;;;;5053562;28;20041;-75
2022/10/30 04:36:23;;;;;;;29.55;4.38;;;13.60;99.90;;;;;;5036316;28;20056;-75
2022/10/30 04:38:50;;;;;;;42.40;5.18;;;13.70;99.90;;;;;;5053770;28;20060;-74
2022/10/30 04:41:20;;;;;;;39.72;4.88;;;13.70;99.90;;;;;;5053514;28;20380;-75
2022/10/30 04:43:57;;;;;;;39.42;4.70;;;13.70;99.90;;;;;;5052645;28;20049;-74
2022/10/30 04:46:24;;;;;;;37.58;4.63;;;13.80;99.90;;;;;;5054011;28;20056;-75
2022/10/30 04:48:56;;;;;;;45.10;4.60;;;13.90;99.90;;;;;;5052794;28;20052;-75
2022/10/30 04:51:24;;;;;;;33.28;4.22;;;13.90;99.90;;;;;;5053646;28;20498;-75
2022/10/30 04:53:53;;;;;;;42.65;4.47;;;13.90;99.90;;;;;;5053308;28;20045;-74
2022/10/30 04:56:20;;;;;;;39.83;4.07;;;13.90;99.90;;;;;;5052217;28;20041;-74
2022/10/30 04:58:48;;;;;;;39.30;4.65;;;13.90;99.90;;;;;;5054267;28;20041;-76
2022/10/30 05:01:15;;;;;;;43.80;4.65;;;13.90;99.90;;;;;;5054817;28;20045;-74
2022/10/30 05:03:44;;;;;;;36.30;4.25;;;13.90;99.90;;;;;;5035628;28;20491;-74
2022/10/30 05:06:25;;;;;;;35.28;4.30;;;14.00;99.90;;;;;;5050749;28;20045;-75
2022/10/30 05:08:54;;;;;;;26.92;3.90;;;14.00;99.90;;;;;;5016032;28;20049;-75
2022/10/30 05:11:40;;;;;;;32.50;4.38;;;14.00;99.90;;;;;;5001158;28;20121;-76
2022/10/30 05:14:07;;;;;;;46.58;5.20;;;13.90;99.90;;;;;;5017043;28;20049;-74
2022/10/30 05:16:36;;;;;;;46.38;4.80;;;14.00;99.90;;;;;;5016278;28;20338;-75
2022/10/30 05:19:04;;;;;;;;;;;14.00;99.90;;;;;;5017288;28;20472;-74
2022/10/30 05:21:33;;;;;;;41.05;4.13;;;13.90;99.90;;;;;;5033185;28;20271;-75
2022/10/30 05:24:01;;;;;;;38.83;4.40;;;13.40;99.90;;;;;;5016795;28;20045;-74
2022/10/30 05:26:37;;;;;;;38.05;4.70;;;13.90;99.90;;;;;;5001984;28;20056;-75
2022/10/30 05:29:04;;;;;;;37.28;4.68;;;14.00;99.90;;;;;;5015719;28;20050;-75
2022/10/30 05:31:32;;;;;;;39.20;4.78;;;14.00;99.90;;;;;;5017007;28;20049;-75
2022/10/30 05:34:28;;;;;;;29.83;3.88;;;14.00;99.90;;;;;;5016758;28;20048;-75
2022/10/30 05:36:56;;;;;;;49.33;5.32;;;14.00;99.90;;;;;;5015749;28;20057;-75
2022/10/30 05:39:23;;;;;;;41.63;4.63;;;14.10;99.90;;;;;;5016913;28;20061;-75
2022/10/30 05:41:51;;;;;;;37.22;4.82;;;14.00;99.90;;;;;;4999343;28;20108;-74
2022/10/30 05:44:20;;;;;;;36.67;4.57;;;14.20;99.90;;;;;;5019274;28;20053;-75
2022/10/30 05:47:09;;;;;;;;;;;14.10;99.90;;;;;;5021170;28;20042;-75
2022/10/30 05:49:37;;;;;;;35.83;4.35;;;14.10;99.90;;;;;;5002802;28;19921;-76
2022/10/30 05:52:10;;;;;;;32.30;4.00;;;14.20;99.90;;;;;;5020304;28;20049;-75
2022/10/30 05:54:38;;;;;;;39.10;4.33;;;14.20;99.90;;;;;;5019925;28;20045;-75
2022/10/30 05:57:12;;;;;;;36.95;4.38;;;14.20;99.90;;;;;;5019049;28;20590;-75
2022/10/30 05:59:41;;;;;;;38.00;4.45;;;14.20;99.90;;;;;;5019963;28;20045;-74
2022/10/30 06:02:08;;;;;;;35.72;4.10;;;14.30;99.90;;;;;;5019160;28;20463;-75
2022/10/30 06:04:36;;;;;;;35.25;4.20;;;14.30;99.90;;;;;;5020043;28;20460;-75
2022/10/30 06:07:10;;;;;;;42.55;4.60;;;14.40;99.90;;;;;;5035776;28;20045;-74
2022/10/30 06:09:37;;;;;;;34.53;3.90;;;14.40;99.90;;;;;;5055973;28;20379;-75
2022/10/30 06:12:10;;;;;;;30.13;4.30;;;14.40;99.90;;;;;;5057002;28;20053;-75
2022/10/30 06:14:50;;;;;;;31.17;3.78;;;14.40;99.90;;;;;;5056106;28;20056;-75
2022/10/30 06:17:18;;;;;;;30.67;3.78;;;14.40;99.90;;;;;;5054841;28;20037;-75
2022/10/30 06:20:16;;;;;;;36.42;4.15;;;14.50;99.90;;;;;;5052231;28;20495;-75
2022/10/30 06:23:17;;;;;;;37.58;4.22;;;14.40;99.90;;;;;;5055782;28;20056;-75
2022/10/30 06:25:49;;;;;;;33.00;3.75;;;14.50;99.90;;;;;;5055895;28;20048;-74
2022/10/30 06:28:30;;;;;;;29.48;3.67;;;14.50;99.90;;;;;;5055301;28;20045;-75
2022/10/30 06:30:57;;;;;;;30.33;3.22;;;14.50;99.90;;;;;;5039582;28;20052;-75
2022/10/30 06:33:25;;;;;;;31.13;3.60;;;14.50;99.90;;;;;;5055535;28;20060;-74
2022/10/30 06:35:53;;;;;;;33.20;3.55;;;14.50;99.90;;;;;;5054396;28;20479;-74
2022/10/30 06:38:21;;;;;;;30.33;3.40;;;14.50;99.90;;;;;;5055469;28;20159;-75
2022/10/30 06:40:49;;;;;;;36.15;3.90;;;14.50;99.90;;;;;;5053919;28;20064;-74
2022/10/30 06:43:24;;;;;;;32.60;4.10;;;14.50;99.90;;;;;;5038060;28;20041;-74
2022/10/30 06:45:57;;;;;;;31.08;3.70;;;14.50;99.90;;;;;;5056217;28;20060;-74
2022/10/30 06:48:26;;;;;;;33.75;3.72;;;14.50;99.90;;;;;;5038265;28;20053;-74
2022/10/30 06:50:59;;;;;;;33.38;3.90;;;14.50;99.90;;;;;;5055827;28;20052;-74
2022/10/30 06:53:28;;;;;;;28.20;3.25;;;14.50;99.90;;;;;;5055107;28;20452;-74
2022/10/30 06:56:15;;;;;;;28.33;3.47;;;14.60;99.90;;;;;;5054593;28;20056;-74
2022/10/30 06:59:03;;;;;;;33.25;4.00;;;14.50;99.90;;;;;;5055457;28;20060;-74
2022/10/30 07:01:37;;;;;;;39.85;3.97;;;14.50;99.90;;;;;;5054888;28;20427;-74
2022/10/30 07:04:19;;;;;;;36.53;3.88;;;14.60;99.90;;;;;;5056323;28;20067;-75
2022/10/30 07:06:47;;;;;;;33.90;3.72;;;14.60;99.90;;;;;;5038621;28;20064;-74
2022/10/30 07:09:14;;;;;;;34.63;3.97;;;14.60;99.90;;;;;;5054114;28;20369;-74
2022/10/30 07:11:44;;;;;;;32.65;4.03;;;14.60;99.90;;;;;;5056015;28;20053;-74
2022/10/30 07:14:32;;;;;;;34.53;4.05;;;14.60;99.90;;;;;;5054391;28;20049;-74
2022/10/30 07:17:10;;;;;;;;;;;14.60;99.90;;;;;;5054978;28;20486;-74
2022/10/30 07:19:39;;;;;;;30.08;4.22;;;14.60;99.90;;;;;;5054773;28;19920;-74
2022/10/30 07:22:07;;;;;;;33.03;3.60;;;14.60;99.90;;;;;;5053865;28;20056;-74
2022/10/30 07:24:37;;;;;;;30.75;3.78;;;14.50;99.90;;;;;;5054680;28;20421;-74
2022/10/30 07:27:17;;;;;;;31.67;3.85;;;14.50;99.90;;;;;;5055098;28;20041;-74
2022/10/30 07:30:23;;;;;;;33.00;4.03;;;14.50;99.90;;;;;;4993740;28;20058;-74
2022/10/30 07:33:31;;;;;;;34.85;3.85;;;14.50;99.90;;;;;;4975280;28;20058;-74
2022/10/30 07:36:18;;;;;;;;;;;14.60;99.90;;;;;;5064609;28;20053;-74
2022/10/30 07:38:51;;;;;;;27.17;3.65;;;14.50;99.90;;;;;;5054488;28;19932;-74
2022/10/30 07:41:32;;;;;;;32.50;3.92;;;14.50;99.90;;;;;;5055414;28;20052;-74
2022/10/30 07:44:31;;;;;;;27.13;3.80;;;14.50;99.90;;;;;;5053640;28;20064;-74
2022/10/30 07:47:12;;;;;;;28.13;3.72;;;14.50;99.90;;;;;;5054443;28;20052;-74
2022/10/30 07:50:10;;;;;;;34.10;3.65;;;14.50;99.90;;;;;;5037618;28;20061;-74
2022/10/30 07:52:39;;;;;;;31.35;3.63;;;14.50;99.90;;;;;;5050671;28;20049;-74
2022/10/30 07:55:13;;;;;;;35.22;3.83;;;14.50;99.90;;;;;;5033409;28;20499;-75
2022/10/30 07:57:42;;;;;;;37.97;4.00;;;14.50;99.90;;;;;;5034761;28;20072;-73
2022/10/30 08:00:25;;;;;;;34.70;4.07;;;14.50;99.90;;;;;;5035182;28;20045;-74
2022/10/30 08:03:11;;;;;;;33.53;4.18;;;14.60;99.90;;;;;;5050210;28;20484;-73
2022/10/30 08:05:54;;;;;;;31.55;4.50;;;14.60;99.90;;;;;;5016951;28;20392;-74
2022/10/30 08:08:27;;;;;;;35.53;4.15;;;14.60;99.90;;;;;;5033047;28;20045;-74
2022/10/30 08:11:07;;;;;;;31.52;4.40;;;14.60;99.90;;;;;;5033925;28;20038;-73
2022/10/30 08:13:35;;;;;;;41.58;3.95;;;14.50;99.90;;;;;;5050403;28;20045;-73
2022/10/30 08:16:03;;;;;;;24.70;3.78;;;14.60;99.90;;;;;;5033881;28;20364;-74
2022/10/30 08:18:31;;;;;;;24.80;3.70;;;14.60;99.90;;;;;;5033682;28;20046;-73
2022/10/30 08:20:58;;;;;;;33.10;3.67;;;14.60;99.90;;;;;;5034490;28;20037;-76
2022/10/30 08:23:26;;;;;;;32.45;3.70;;;14.60;99.90;;;;;;5032988;28;20275;-75
2022/10/30 08:26:00;;;;;;;29.75;3.35;;;14.60;99.90;;;;;;5033739;28;20380;-73
2022/10/30 08:28:30;;;;;;;29.65;3.53;;;14.60;99.90;;;;;;5032934;28;20049;-74
2022/10/30 08:31:01;;;;;;;26.77;2.97;;;14.60;99.90;;;;;;5033539;28;20050;-73
2022/10/30 08:33:49;;;;;;;27.42;3.30;;;14.60;99.90;;;;;;5034684;28;20064;-74
2022/10/30 08:36:35;;;;;;;29.92;3.33;;;14.60;99.90;;;;;;5049472;28;20033;-74
2022/10/30 08:39:03;;;;;;;26.60;3.17;;;14.60;99.90;;;;;;5033887;28;20049;-73
2022/10/30 08:41:41;;;;;;;21.30;3.17;;;14.60;99.90;;;;;;5033077;28;20052;-74
2022/10/30 08:44:12;;;;;;;29.13;3.17;;;14.60;99.90;;;;;;5033917;28;20052;-74
2022/10/30 08:47:01;;;;;;;23.70;2.92;;;14.60;99.90;;;;;;5013833;28;20484;-74
2022/10/30 08:49:29;;;;;;;28.67;3.20;;;14.60;99.90;;;;;;5049124;28;20057;-74
2022/10/30 08:51:58;;;;;;;28.10;3.20;;;14.60;99.90;;;;;;5033760;28;20049;-74
2022/10/30 08:54:26;;;;;;;31.80;3.70;;;14.60;99.90;;;;;;5033463;28;20045;-73
2022/10/30 08:56:54;;;;;;;27.33;3.28;;;14.60;99.90;;;;;;5049105;28;20050;-74
2022/10/30 08:59:23;;;;;;;32.65;3.72;;;14.60;99.90;;;;;;5033694;28;20050;-74
2022/10/30 09:01:53;;;;;;;25.88;3.17;;;14.60;99.90;;;;;;5032499;28;20049;-74
2022/10/30 09:04:21;;;;;;;22.23;2.70;;;14.60;99.90;;;;;;5034238;28;20052;-74
2022/10/30 09:06:59;;;;;;;25.58;2.95;;;14.60;99.90;;;;;;5026220;28;20049;-73
2022/10/30 09:09:45;;;;;;;18.45;2.50;;;14.60;99.90;;;;;;5013803;28;20384;-74
2022/10/30 09:12:13;;;;;;;22.02;2.40;;;14.50;99.90;;;;;;5013623;28;20046;-74
2022/10/30 09:14:43;;;;;;;17.90;2.55;;;14.50;99.90;;;;;;5013759;28;20050;-74
2022/10/30 09:17:11;;;;;;;27.85;3.13;;;14.50;99.90;;;;;;4981110;28;20388;-74
2022/10/30 09:19:43;;;;;;;16.65;2.50;;;14.50;99.90;;;;;;5001357;28;20042;-73
2022/10/30 09:22:15;;;;;;;21.60;2.35;;;14.50;99.90;;;;;;5016441;28;20346;-72
2022/10/30 09:24:43;;;;;;;25.98;2.90;;;14.50;99.90;;;;;;5001357;28;20052;-72
2022/10/30 09:27:30;;;;;;;20.00;2.42;;;14.50;99.90;;;;;;5017995;28;20053;-72
2022/10/30 09:30:03;;;;;;;17.73;2.95;;;14.50;99.90;;;;;;5000036;28;20037;-72
2022/10/30 09:32:32;;;;;;;23.77;3.22;;;14.50;99.90;;;;;;5000313;28;20060;-73
2022/10/30 09:35:11;;;;;;;23.67;2.95;;;14.50;99.90;;;;;;4999407;28;20469;-72
2022/10/30 09:37:40;;;;;;;18.67;2.50;;;14.50;99.90;;;;;;5016631;28;20326;-72
2022/10/30 09:40:37;;;;;;;20.13;2.50;;;14.50;99.90;;;;;;5000440;28;20053;-72
2022/10/30 09:43:56;;;;;;;16.02;1.95;;;14.50;99.90;;;;;;5015870;28;20369;-72
2022/10/30 09:46:35;;;;;;;23.13;2.85;;;14.50;99.90;;;;;;4918911;29;20484;-71
2022/10/30 09:49:26;;;;;;;19.60;2.50;;;14.60;99.90;;;;;;4918110;29;20055;-73
2022/10/30 09:52:22;;;;;;;19.40;2.60;;;14.60;99.90;;;;;;4978896;28;20412;-71
2022/10/30 09:55:13;;;;;;;26.67;2.75;;;14.60;99.90;;;;;;5000095;28;20052;-72
2022/10/30 09:57:52;;;;;;;20.73;2.47;;;14.60;99.90;;;;;;5016118;28;20050;-73
2022/10/30 10:00:21;;;;;;;23.23;2.53;;;14.60;99.90;;;;;;5016999;28;20038;-74
2022/10/30 10:03:17;;;;;;;13.90;2.45;;;14.60;99.90;;;;;;5015438;28;20038;-72
2022/10/30 10:06:13;;;;;;;20.95;2.08;;;14.60;99.90;;;;;;5017391;28;20377;-73
2022/10/30 10:09:11;;;;;;;20.48;2.38;;;14.70;99.90;;;;;;5010650;28;20470;-73
2022/10/30 10:12:10;;;;;;;20.10;2.55;;;14.70;99.90;;;;;;4984186;28;20376;-72
2022/10/30 10:14:42;;;;;;;17.98;2.47;;;14.80;99.90;;;;;;5000381;28;20050;-74
2022/10/30 10:17:14;;;;;;;19.50;2.60;;;14.90;99.90;;;;;;5015911;28;20038;-72
2022/10/30 10:19:48;;;;;;;18.83;2.28;;;14.90;99.90;;;;;;5017542;28;20046;-73
2022/10/30 10:22:28;;;;;;;20.35;2.60;;;15.00;99.90;;;;;;5015893;28;20046;-71
2022/10/30 10:24:58;;;;;;;16.90;2.40;;;15.10;99.90;;;;;;5016953;28;20057;-72
2022/10/30 10:27:29;;;;;;;21.27;2.38;;;15.10;99.90;;;;;;4983496;28;20042;-73
2022/10/30 10:29:59;;;;;;;17.35;2.60;;;15.20;99.90;;;;;;4998032;28;20374;-72
2022/10/30 10:32:50;;;;;;;18.40;2.15;;;15.20;99.90;;;;;;5017335;28;20065;-73
2022/10/30 10:35:45;;;;;;;18.27;2.55;;;15.10;99.90;;;;;;5035425;28;20056;-72
2022/10/30 10:38:45;;;;;;;15.60;2.05;;;15.10;99.90;;;;;;5036685;28;20046;-72
2022/10/30 10:41:30;;;;;;;12.98;2.10;;;15.20;99.90;;;;;;4989814;28;20054;-71
2022/10/30 10:44:07;;;;;;;15.52;2.42;;;15.10;99.90;;;;;;5015499;28;20037;-72
2022/10/30 10:47:16;;;;;;;18.80;2.60;;;15.10;99.90;;;;;;5016598;28;20519;-72
2022/10/30 10:50:09;;;;;;;17.38;2.03;;;15.00;99.90;;;;;;5015588;28;20050;-71
2022/10/30 10:52:38;;;;;;;13.18;2.22;;;14.90;99.90;;;;;;5016637;28;20121;-71
2022/10/30 10:55:17;;;;;;;12.52;1.98;;;14.90;99.90;;;;;;5015283;28;20076;-71
2022/10/30 10:57:46;;;;;;;14.85;1.77;;;14.90;99.90;;;;;;5016626;28;20042;-71
2022/10/30 11:00:22;;;;;;;13.43;2.00;;;15.00;99.90;;;;;;5016416;28;20049;-71
2022/10/30 11:02:56;;;;;;;12.60;1.70;;;14.90;99.90;;;;;;5015257;28;20042;-71
2022/10/30 11:05:38;;;;;;;14.88;1.80;;;15.00;99.90;;;;;;5016876;28;20465;-71
2022/10/30 11:08:14;;;;;;;16.17;2.05;;;15.00;99.90;;;;;;5016073;28;20042;-71
2022/10/30 11:10:41;;;;;;;14.90;2.08;;;15.00;99.90;;;;;;5016474;28;20046;-71
2022/10/30 11:13:13;;;;;;;14.23;2.00;;;15.00;99.90;;;;;;5016262;28;20041;-71
2022/10/30 11:15:55;;;;;;;12.73;1.88;;;15.10;99.90;;;;;;4997711;28;20049;-72
2022/10/30 11:18:23;;;;;;;8.93;1.48;;;15.10;99.90;;;;;;5016265;28;20048;-71
2022/10/30 11:21:03;;;;;;;18.10;2.10;;;15.20;99.90;;;;;;5016034;28;20057;-72
2022/10/30 11:23:31;;;;;;;14.48;1.80;;;15.30;99.90;;;;;;5015008;28;20046;-72
2022/10/30 11:26:00;;;;;;;12.68;1.70;;;15.30;99.90;;;;;;5015818;28;20049;-71
2022/10/30 11:28:35;;;;;;;12.38;1.67;;;15.40;99.90;;;;;;4997715;28;20484;-71
2022/10/30 11:31:17;;;;;;;15.43;1.90;;;15.40;99.90;;;;;;5016070;28;20062;-71
2022/10/30 11:33:46;;;;;;;10.20;1.48;;;15.40;99.90;;;;;;4998705;28;20053;-73
2022/10/30 11:36:16;;;;;;;13.88;1.83;;;15.40;99.90;;;;;;5014613;28;20380;-75
2022/10/30 11:38:44;;;;;;;13.77;1.88;;;15.30;99.90;;;;;;5016147;28;20050;-73
2022/10/30 11:41:12;;;;;;;12.13;1.73;;;15.40;99.90;;;;;;5015183;28;20053;-69
2022/10/30 11:43:41;;;;;;;11.90;1.90;;;15.50;99.90;;;;;;5014618;28;20057;-73
2022/10/30 11:46:15;;;;;;;12.32;1.80;;;15.60;99.90;;;;;;5015700;28;20373;-69
2022/10/30 11:48:44;;;;;;;14.07;2.10;;;15.50;99.90;;;;;;5014588;28;20054;-71
2022/10/30 11:51:12;;;;;;;14.52;1.65;;;15.80;99.90;;;;;;5016126;28;20041;-72
2022/10/30 11:53:47;;;;;;;13.70;1.98;;;15.90;99.90;;;;;;5015915;28;20354;-70
2022/10/30 11:56:18;;;;;;;13.73;2.10;;;16.00;99.90;;;;;;5000098;28;20326;-71
2022/10/30 11:58:50;;;;;;;13.77;2.13;;;16.00;99.90;;;;;;5015717;28;20053;-72
2022/10/30 12:01:22;;;;;;;13.38;1.95;;;16.10;99.90;;;;;;5015272;28;20046;-70
2022/10/30 12:03:52;;;;;;;9.23;1.65;;;16.10;99.90;;;;;;5014214;28;20042;-72
2022/10/30 12:06:28;;;;;;;16.55;1.92;;;16.10;99.90;;;;;;4997913;28;20061;-73
2022/10/30 12:09:20;;;;;;;7.55;1.50;;;16.10;99.90;;;;;;5014267;28;20050;-70
2022/10/30 12:11:48;;;;;;;11.07;2.00;;;16.00;99.90;;;;;;5015050;28;20049;-74
2022/10/30 12:14:22;;;;;;;15.35;2.00;;;16.00;99.90;;;;;;5015258;28;20049;-74
2022/10/30 12:16:52;;;;;;;14.38;2.22;;;16.00;99.90;;;;;;5014206;28;20042;-74
2022/10/30 12:19:22;;;;;;;12.57;1.90;;;16.00;99.90;;;;;;5015313;28;20044;-73
2022/10/30 12:21:52;;;;;;;10.88;1.90;;;16.00;99.90;;;;;;4997152;28;20045;-71
2022/10/30 12:24:25;;;;;;;14.57;2.13;;;16.00;99.90;;;;;;5014888;28;20477;-72
2022/10/30 12:26:54;;;;;;;17.52;2.55;;;16.10;99.90;;;;;;5015559;28;20057;-70
2022/10/30 12:29:37;;;;;;;13.93;2.10;;;16.10;99.90;;;;;;5013827;28;20385;-72
2022/10/30 12:32:29;;;;;;;8.80;2.10;;;16.20;99.90;;;;;;5014800;28;20049;-72
2022/10/30 12:35:02;;;;;;;10.77;1.90;;;16.20;99.90;;;;;;5014626;28;20061;-71
2022/10/30 12:37:37;;;;;;;12.75;2.00;;;16.20;99.90;;;;;;5014878;28;20372;-71
2022/10/30 12:40:14;;;;;;;15.13;2.00;;;16.20;99.90;;;;;;5014952;28;20376;-72
2022/10/30 12:42:58;;;;;;;12.63;2.22;;;16.20;99.90;;;;;;5013877;28;20469;-73
2022/10/30 12:45:35;;;;;;;15.85;1.80;;;16.20;99.90;;;;;;5014775;28;20046;-71
2022/10/30 12:48:15;;;;;;;11.83;1.60;;;16.20;99.90;;;;;;5015364;28;20350;-72
2022/10/30 12:51:13;;;;;;;10.93;1.67;;;16.20;99.90;;;;;;5014127;28;20296;-70
2022/10/30 12:53:59;;;;;;;15.60;2.08;;;16.20;99.90;;;;;;5017757;28;20050;-70
2022/10/30 12:56:40;;;;;;;15.13;2.05;;;16.20;99.90;;;;;;5020083;28;20045;-72
2022/10/30 12:59:07;;;;;;;11.48;2.15;;;16.20;99.90;;;;;;5038303;28;20057;-71
2022/10/30 13:01:48;;;;;;;16.90;2.07;;;16.20;99.90;;;;;;5020641;28;20352;-72
2022/10/30 13:04:28;;;;;;;14.18;2.33;;;16.30;99.90;;;;;;5038133;28;20755;-71
2022/10/30 13:07:11;;;;;;;17.23;2.10;;;16.30;99.90;;;;;;5037788;28;20045;-70
2022/10/30 13:09:56;;;;;;;12.80;2.03;;;16.30;99.90;;;;;;5037267;28;20046;-72
2022/10/30 13:12:32;;;;;;;15.27;2.53;;;16.30;99.90;;;;;;5038020;28;20050;-72
2022/10/30 13:15:15;;;;;;;10.57;2.30;;;16.30;99.90;;;;;;5037533;28;20049;-71